Terminal Aerodrome Forecast
Issued by NWS

Home | Current Version | Previous Version | Text Only | Print | Product List | Glossary On
Versions: 1 2 3 4 5 6 7 8 9 10 11 12 13 14
000
FTPA31 PHFO 211735
TAFSTU
TAF
NSTU 211735Z 2118/2218 VRB03KT P6SM FEW025 SCT100 BKN200
     FM212100 11012KT P6SM VCSH SCT025 BKN100 BKN200=

USA.gov is the U.S. government's official web portal to all federal, state and local government web resources and services.